createdAt,value
2023-11-01T00:01:20.834Z,96548.09
2023-11-01T00:03:49.649Z,96555.25
2023-11-01T00:06:18.993Z,96555.88
2023-11-01T00:08:47.501Z,96555.03
2023-11-01T00:11:16.557Z,96560.66
2023-11-01T00:13:45.504Z,96566.81
2023-11-01T00:16:13.911Z,96562.44
2023-11-01T00:18:42.404Z,96555.25
2023-11-01T00:21:11.132Z,96561.84
2023-11-01T00:23:39.680Z,96556.44
2023-11-01T00:26:08.871Z,96563.25
2023-11-01T00:28:38.321Z,96564.03
2023-11-01T00:31:07.452Z,96566.44
2023-11-01T00:33:36.722Z,96567.03
2023-11-01T00:36:05.787Z,96576.78
2023-11-01T00:38:37.341Z,96574.41
2023-11-01T00:41:06.124Z,96574.59
2023-11-01T00:43:34.698Z,96582.59
2023-11-01T00:46:03.383Z,96584.16
2023-11-01T00:48:32.003Z,96586.75
2023-11-01T00:51:01.103Z,96592.16
2023-11-01T00:53:29.445Z,96592.34
2023-11-01T00:55:58.369Z,96581.97
2023-11-01T00:58:26.747Z,96587.13
2023-11-01T01:00:56.418Z,96591.31
2023-11-01T01:03:25.194Z,96587.88
2023-11-01T01:05:53.683Z,96588.22
2023-11-01T01:08:22.221Z,96591.34
2023-11-01T01:10:50.653Z,96581.81
2023-11-01T01:13:18.996Z,96590.38
2023-11-01T01:15:47.480Z,96594.19
2023-11-01T01:18:16.563Z,96595.25
2023-11-01T01:20:45.446Z,96591.75
2023-11-01T01:23:14.997Z,96596.94
2023-11-01T01:25:44.090Z,96588.09
2023-11-01T01:28:12.597Z,96584.66
2023-11-01T01:30:41.374Z,96593.75
2023-11-01T01:33:09.742Z,96588.16
2023-11-01T01:35:38.134Z,96592.88
2023-11-01T01:38:06.986Z,96590.28
2023-11-01T01:40:35.982Z,96585.25
2023-11-01T01:43:31.616Z,96593.09
2023-11-01T01:46:00.048Z,96596.00
2023-11-01T01:48:28.551Z,96591.75
2023-11-01T01:50:57.487Z,96593.03
2023-11-01T01:53:26.019Z,96592.50
2023-11-01T01:55:55.927Z,96583.94
2023-11-01T01:58:26.667Z,96588.03
2023-11-01T02:00:56.898Z,96586.28
2023-11-01T02:03:26.057Z,96587.31
2023-11-01T02:05:54.852Z,96586.91
2023-11-01T02:08:23.668Z,96590.75
2023-11-01T02:10:52.036Z,96603.47
2023-11-01T02:13:21.458Z,96592.41
2023-11-01T02:15:50.667Z,96597.78
2023-11-01T02:18:19.785Z,96600.22
2023-11-01T02:20:49.131Z,96592.28
2023-11-01T02:23:17.742Z,96599.88
2023-11-01T02:25:46.422Z,96602.00
2023-11-01T02:28:14.800Z,96604.09
2023-11-01T02:30:44.148Z,96597.00
2023-11-01T02:33:12.508Z,96600.88
2023-11-01T02:35:41.376Z,96611.72
2023-11-01T02:38:11.076Z,96609.41
2023-11-01T02:40:39.637Z,96614.09
2023-11-01T02:43:08.157Z,96616.09
2023-11-01T02:45:37.129Z,96606.31
2023-11-01T02:48:05.622Z,96611.28
2023-11-01T02:50:34.046Z,96614.53
2023-11-01T02:53:02.510Z,96615.00
2023-11-01T02:55:31.195Z,96602.00
2023-11-01T02:57:59.787Z,96613.28
2023-11-01T03:00:29.378Z,96612.78
2023-11-01T03:02:59.218Z,96615.94
2023-11-01T03:05:29.852Z,96614.63
2023-11-01T03:07:58.853Z,96617.81
2023-11-01T03:10:27.938Z,96597.22
2023-11-01T03:12:57.525Z,96616.16
2023-11-01T03:15:25.904Z,96617.03
2023-11-01T03:17:54.392Z,96625.16
2023-11-01T03:20:22.950Z,96608.31
2023-11-01T03:22:51.450Z,96611.00
2023-11-01T03:25:20.180Z,96616.56
2023-11-01T03:27:49.122Z,96606.44
2023-11-01T03:30:17.818Z,96616.56
2023-11-01T03:32:47.211Z,96622.53
2023-11-01T03:35:16.938Z,96616.50
2023-11-01T03:37:45.427Z,96619.75
2023-11-01T03:40:13.863Z,96617.16
2023-11-01T03:42:43.383Z,96620.88
2023-11-01T03:45:12.896Z,96622.38
2023-11-01T03:47:41.816Z,96610.63
2023-11-01T03:50:10.638Z,96621.16
2023-11-01T03:52:39.115Z,96615.06
2023-11-01T03:55:13.301Z,96620.50
2023-11-01T03:57:42.503Z,96620.47
2023-11-01T04:00:12.920Z,96613.97
2023-11-01T04:02:41.684Z,96613.56
2023-11-01T04:05:10.158Z,96610.03
2023-11-01T04:07:38.568Z,96614.03
2023-11-01T04:10:07.205Z,96611.59
2023-11-01T04:12:36.166Z,96618.06
2023-11-01T04:15:07.110Z,96604.50
2023-11-01T04:17:35.669Z,96611.16
2023-11-01T04:20:05.031Z,96620.00
2023-11-01T04:22:33.401Z,96612.41
2023-11-01T04:25:01.755Z,96612.47
2023-11-01T04:27:30.207Z,96614.69
2023-11-01T04:29:58.778Z,96619.41
2023-11-01T04:32:31.636Z,96630.63
2023-11-01T04:35:00.561Z,96624.28
2023-11-01T04:37:29.110Z,96627.09
2023-11-01T04:39:58.309Z,96629.06
2023-11-01T04:42:26.751Z,96633.47
2023-11-01T04:44:58.397Z,96631.19
2023-11-01T04:47:27.714Z,96621.31
2023-11-01T04:49:57.372Z,96620.75
2023-11-01T04:52:25.799Z,96626.41
2023-11-01T04:54:54.486Z,96633.28
2023-11-01T04:57:22.891Z,96634.78
2023-11-01T04:59:51.423Z,96627.63
2023-11-01T05:02:21.385Z,96629.09
2023-11-01T05:04:50.118Z,96627.44
2023-11-01T05:07:18.442Z,96634.31
2023-11-01T05:09:47.861Z,96629.38
2023-11-01T05:12:16.582Z,96638.81
2023-11-01T05:14:44.998Z,96632.00
2023-11-01T05:17:13.448Z,96636.28
2023-11-01T05:19:43.181Z,96627.00
2023-11-01T05:22:11.801Z,96628.88
2023-11-01T05:24:41.179Z,96625.63
2023-11-01T05:27:10.190Z,96626.63
2023-11-01T05:29:39.011Z,96630.91
2023-11-01T05:32:07.851Z,96622.94
2023-11-01T05:34:36.389Z,96624.31
2023-11-01T05:37:05.149Z,96619.25
2023-11-01T05:39:33.676Z,96621.63
2023-11-01T05:42:02.192Z,96628.25
2023-11-01T05:44:32.227Z,96630.13
2023-11-01T05:47:01.868Z,96629.66
2023-11-01T05:49:30.229Z,96628.16
2023-11-01T05:51:58.749Z,96629.84
2023-11-01T05:54:27.401Z,96627.31
2023-11-01T05:56:56.224Z,96629.91
2023-11-01T05:59:24.617Z,96629.44
2023-11-01T06:01:55.133Z,96641.38
2023-11-01T06:04:23.829Z,96639.03
2023-11-01T06:06:52.231Z,96641.31
2023-11-01T06:09:21.350Z,96635.81
2023-11-01T06:11:50.476Z,96636.44
2023-11-01T06:14:19.000Z,96639.38
2023-11-01T06:16:47.585Z,96647.16
2023-11-01T06:19:16.136Z,96648.47
2023-11-01T06:21:44.572Z,96651.28
2023-11-01T06:24:15.589Z,96649.94
2023-11-01T06:26:44.054Z,96656.50
2023-11-01T06:29:12.441Z,96652.66
2023-11-01T06:31:40.851Z,96664.66
2023-11-01T06:34:09.467Z,96638.63
2023-11-01T06:36:37.974Z,96661.41
2023-11-01T06:39:06.390Z,96661.41
2023-11-01T06:41:34.779Z,96659.50
2023-11-01T06:44:03.927Z,96663.00
2023-11-01T06:46:32.665Z,96669.78
2023-11-01T06:49:01.156Z,96667.88
2023-11-01T06:51:29.809Z,96664.81
2023-11-01T06:53:58.175Z,96671.06
2023-11-01T06:56:26.585Z,96678.16
2023-11-01T06:58:55.140Z,96679.03
2023-11-01T07:01:24.650Z,96678.78
2023-11-01T07:03:53.387Z,96683.50
2023-11-01T07:06:21.750Z,96689.22
2023-11-01T07:08:50.444Z,96679.59
2023-11-01T07:11:20.860Z,96681.84
2023-11-01T07:13:49.892Z,96677.56
2023-11-01T07:16:19.477Z,96688.31
2023-11-01T07:18:48.862Z,96680.00
2023-11-01T07:21:18.615Z,96690.63
2023-11-01T07:23:47.505Z,96687.03
2023-11-01T07:26:16.477Z,96692.66
2023-11-01T07:28:47.966Z,96694.06
2023-11-01T07:31:17.021Z,96697.69
2023-11-01T07:33:45.594Z,96698.47
2023-11-01T07:36:16.818Z,96703.34
2023-11-01T07:38:45.241Z,96708.63
2023-11-01T07:41:13.756Z,96710.44
2023-11-01T07:43:42.598Z,96704.41
2023-11-01T07:46:13.510Z,96707.44
2023-11-01T07:48:41.962Z,96719.50
2023-11-01T07:51:10.788Z,96711.03
2023-11-01T07:53:39.325Z,96713.06
2023-11-01T07:56:07.957Z,96723.44
2023-11-01T07:58:36.926Z,96720.22
2023-11-01T08:01:06.420Z,96721.53
2023-11-01T08:03:37.527Z,96728.09
2023-11-01T08:06:06.113Z,96732.06
2023-11-01T08:08:34.556Z,96736.03
2023-11-01T08:11:03.438Z,96740.53
2023-11-01T08:13:32.019Z,96744.56
2023-11-01T08:16:00.433Z,96744.47
2023-11-01T08:18:32.193Z,96751.22
2023-11-01T08:21:01.495Z,96744.38
2023-11-01T08:23:29.929Z,96754.66
2023-11-01T08:25:59.131Z,96751.09
2023-11-01T08:28:27.653Z,96760.03
2023-11-01T08:30:57.490Z,96762.69
2023-11-01T08:33:25.929Z,96755.25
2023-11-01T08:35:54.483Z,96764.84
2023-11-01T08:38:23.867Z,96772.78
2023-11-01T08:40:52.861Z,96769.22
2023-11-01T08:43:21.894Z,96774.66
2023-11-01T08:45:50.379Z,96782.25
2023-11-01T08:48:19.203Z,96782.97
2023-11-01T08:50:47.860Z,96784.97
2023-11-01T08:53:16.989Z,96794.81
2023-11-01T08:55:45.599Z,96798.19
2023-11-01T08:58:14.491Z,96809.16
2023-11-01T09:00:48.114Z,96809.59
2023-11-01T09:03:19.064Z,96806.19
2023-11-01T09:05:47.623Z,96811.66
2023-11-01T09:08:15.984Z,96819.84
2023-11-01T09:10:44.671Z,96821.63
2023-11-01T09:13:14.901Z,96824.00
2023-11-01T09:15:44.600Z,96822.53
2023-11-01T09:18:13.602Z,96827.94
2023-11-01T09:20:42.104Z,96829.84
2023-11-01T09:23:10.462Z,96833.22
2023-11-01T09:25:39.910Z,96847.19
2023-11-01T09:28:09.312Z,96846.91
2023-11-01T09:30:38.502Z,96851.03
2023-11-01T09:33:06.998Z,96859.78
2023-11-01T09:35:35.640Z,96857.25
2023-11-01T09:38:04.436Z,96860.94
2023-11-01T09:40:32.905Z,96863.84
2023-11-01T09:43:01.526Z,96878.16
2023-11-01T09:45:30.476Z,96881.19
2023-11-01T09:47:58.889Z,96882.66
2023-11-01T09:50:27.413Z,96875.59
2023-11-01T09:52:55.849Z,96885.47
2023-11-01T09:55:24.545Z,96877.50
2023-11-01T09:57:53.230Z,96889.38
2023-11-01T10:00:23.532Z,96885.38
2023-11-01T10:02:52.325Z,96882.63
2023-11-01T10:05:20.677Z,96894.06
2023-11-01T10:07:49.369Z,96898.13
2023-11-01T10:10:20.627Z,96896.16
2023-11-01T10:12:49.129Z,96900.00
2023-11-01T10:15:21.522Z,96904.25
2023-11-01T10:17:53.411Z,96906.53
2023-11-01T10:20:31.778Z,96915.28
2023-11-01T10:23:00.532Z,96909.72
2023-11-01T10:25:29.007Z,96916.22
2023-11-01T10:27:57.503Z,96908.84
2023-11-01T10:30:26.083Z,96906.88
2023-11-01T10:32:59.038Z,96907.31
2023-11-01T10:35:30.710Z,96907.13
2023-11-01T10:38:01.088Z,96908.13
2023-11-01T10:40:31.374Z,96907.34
2023-11-01T10:43:00.836Z,96904.78
2023-11-01T10:45:29.411Z,96915.03
2023-11-01T10:47:58.116Z,96914.59
2023-11-01T10:50:26.818Z,96916.81
2023-11-01T10:52:55.376Z,96914.59
2023-11-01T10:55:25.830Z,96914.84
2023-11-01T10:57:54.379Z,96920.69
2023-11-01T11:00:32.948Z,96923.25
2023-11-01T11:03:13.396Z,96910.22
2023-11-01T11:05:42.721Z,96919.28
2023-11-01T11:08:12.054Z,96923.94
2023-11-01T11:10:41.212Z,96921.69
2023-11-01T11:13:30.387Z,96923.88
2023-11-01T11:16:01.585Z,96925.88
2023-11-01T11:18:50.450Z,96928.25
2023-11-01T11:21:37.442Z,96922.84
2023-11-01T11:24:26.246Z,96923.69
2023-11-01T11:26:54.731Z,96930.69
2023-11-01T11:29:41.752Z,96929.06
2023-11-01T11:32:17.210Z,96930.09
2023-11-01T11:34:47.583Z,96932.31
2023-11-01T11:37:18.896Z,96937.94
2023-11-01T11:40:02.342Z,96941.16
2023-11-01T11:42:43.765Z,96941.78
2023-11-01T11:45:14.109Z,96945.59
2023-11-01T11:47:43.160Z,96944.41
2023-11-01T11:50:12.125Z,96947.44
2023-11-01T11:52:45.719Z,96958.88
2023-11-01T11:55:14.247Z,96952.06
2023-11-01T11:57:43.192Z,96959.31
2023-11-01T12:00:14.969Z,96965.09
2023-11-01T12:02:48.636Z,96963.31
2023-11-01T12:05:18.073Z,96961.31
2023-11-01T12:07:49.009Z,96962.16
2023-11-01T12:10:17.350Z,96966.97
2023-11-01T12:12:56.111Z,96969.00
2023-11-01T12:15:25.013Z,96968.00
2023-11-01T12:17:54.454Z,96970.81
2023-11-01T12:20:32.884Z,96978.00
2023-11-01T12:23:07.074Z,96977.22
2023-11-01T12:25:35.550Z,96980.22
2023-11-01T12:28:04.061Z,96981.22
2023-11-01T12:30:38.767Z,96987.22
2023-11-01T12:33:19.997Z,96986.41
2023-11-01T12:35:48.606Z,96982.41
2023-11-01T12:38:17.338Z,96998.44
2023-11-01T12:40:51.173Z,97000.41
2023-11-01T12:43:19.993Z,96993.44
2023-11-01T12:45:48.487Z,96995.22
2023-11-01T12:48:17.130Z,97000.25
2023-11-01T12:50:45.864Z,97002.63
2023-11-01T12:53:14.373Z,97001.03
2023-11-01T12:55:42.818Z,97003.84
2023-11-01T12:58:12.712Z,97005.63
2023-11-01T13:00:42.854Z,97000.22
2023-11-01T13:03:11.788Z,97002.44
2023-11-01T13:05:41.426Z,97004.63
2023-11-01T13:08:10.021Z,97012.63
2023-11-01T13:10:39.471Z,97007.44
2023-11-01T13:13:09.671Z,97010.63
2023-11-01T13:15:38.779Z,97016.44
2023-11-01T13:18:07.893Z,97027.63
2023-11-01T13:20:36.357Z,97034.03
2023-11-01T13:23:04.882Z,97029.22
2023-11-01T13:25:33.433Z,97032.44
2023-11-01T13:28:03.563Z,97035.63
2023-11-01T13:30:32.033Z,97037.22
2023-11-01T13:33:02.802Z,97040.22
2023-11-01T13:35:32.375Z,97036.81
2023-11-01T13:38:00.882Z,97037.81
2023-11-01T13:40:29.547Z,97042.41
2023-11-01T13:42:57.989Z,97046.38
2023-11-01T13:45:26.380Z,97048.59
2023-11-01T13:47:54.983Z,97053.56
2023-11-01T13:50:23.580Z,97048.16
2023-11-01T13:52:52.235Z,97056.53
2023-11-01T13:55:20.687Z,97060.09
2023-11-01T13:57:49.378Z,97061.91
2023-11-01T14:00:18.954Z,97069.69
2023-11-01T14:02:47.831Z,97070.66
2023-11-01T14:05:16.410Z,97063.06
2023-11-01T14:07:44.872Z,97067.28
2023-11-01T14:10:13.461Z,97072.47
2023-11-01T14:12:46.616Z,97076.06
2023-11-01T14:15:15.428Z,97075.03
2023-11-01T14:17:43.910Z,97074.59
2023-11-01T14:20:12.926Z,97076.63
2023-11-01T14:22:43.473Z,97088.19
2023-11-01T14:25:11.989Z,97084.75
2023-11-01T14:27:42.659Z,97080.38
2023-11-01T14:30:11.571Z,97084.75
2023-11-01T14:32:40.194Z,97080.38
2023-11-01T14:35:10.804Z,97078.03
2023-11-01T14:37:43.015Z,97077.06
2023-11-01T14:40:13.149Z,97083.28
2023-11-01T14:42:41.601Z,97084.28
2023-11-01T14:45:10.338Z,97083.50
2023-11-01T14:47:39.114Z,97085.50
2023-11-01T14:50:10.989Z,97080.94
2023-11-01T14:52:39.450Z,97085.94
2023-11-01T14:55:08.247Z,97081.91
2023-11-01T14:57:36.781Z,97080.94
2023-11-01T15:00:09.098Z,97080.94
2023-11-01T15:02:38.393Z,97083.94
2023-11-01T15:05:08.252Z,97088.94
2023-11-01T15:07:38.252Z,97082.34
2023-11-01T15:10:06.801Z,97092.31
2023-11-01T15:12:35.272Z,97091.72
2023-11-01T15:15:04.038Z,97094.50
2023-11-01T15:17:33.366Z,97109.28
2023-11-01T15:20:01.866Z,97105.06
2023-11-01T15:22:31.926Z,97108.91
2023-11-01T15:25:01.414Z,97115.47
2023-11-01T15:27:30.768Z,97116.72
2023-11-01T15:30:00.375Z,97107.31
2023-11-01T15:32:29.963Z,97111.50
2023-11-01T15:34:58.380Z,97107.06
2023-11-01T15:37:28.234Z,97100.66
2023-11-01T15:39:57.015Z,97107.03
2023-11-01T15:42:25.462Z,97107.84
2023-11-01T15:44:54.002Z,97101.25
2023-11-01T15:47:22.460Z,97099.00
2023-11-01T15:49:50.995Z,97105.59
2023-11-01T15:52:19.405Z,97109.00
2023-11-01T15:54:52.726Z,97115.56
2023-11-01T15:57:23.030Z,97116.56
2023-11-01T15:59:52.830Z,97113.34
2023-11-01T16:02:23.042Z,97113.53
2023-11-01T16:04:52.130Z,97114.13
2023-11-01T16:07:21.948Z,97109.47
2023-11-01T16:09:50.312Z,97107.91
2023-11-01T16:12:18.759Z,97105.66
2023-11-01T16:14:47.183Z,97114.25
2023-11-01T16:17:16.404Z,97112.25
2023-11-01T16:19:44.836Z,97116.00
2023-11-01T16:22:13.315Z,97119.31
2023-11-01T16:24:42.446Z,97122.44
2023-11-01T16:27:11.080Z,97125.78
2023-11-01T16:29:39.690Z,97124.13
2023-11-01T16:32:08.222Z,97119.09
2023-11-01T16:34:39.591Z,97126.34
2023-11-01T16:37:08.277Z,97117.56
2023-11-01T16:39:40.499Z,97124.91
2023-11-01T16:42:16.065Z,97118.50
2023-11-01T16:44:44.970Z,97125.31
2023-11-01T16:47:13.446Z,97130.91
2023-11-01T16:49:43.837Z,97130.56
2023-11-01T16:52:12.807Z,97129.72
2023-11-01T16:54:41.566Z,97132.13
2023-11-01T16:57:09.980Z,97127.38
2023-11-01T16:59:38.607Z,97135.41
2023-11-01T17:02:09.441Z,97128.41
2023-11-01T17:04:38.481Z,97127.25
2023-11-01T17:07:07.198Z,97122.63
2023-11-01T17:09:35.978Z,97127.63
2023-11-01T17:12:04.983Z,97119.66
2023-11-01T17:14:33.372Z,97123.03
2023-11-01T17:17:03.177Z,97123.03
2023-11-01T17:19:31.724Z,97127.88
2023-11-01T17:22:00.223Z,97132.50
2023-11-01T17:24:28.698Z,97132.09
2023-11-01T17:27:00.369Z,97126.91
2023-11-01T17:29:33.471Z,97130.31
2023-11-01T17:32:01.946Z,97132.94
2023-11-01T17:34:32.168Z,97122.69
2023-11-01T17:37:02.165Z,97119.94
2023-11-01T17:39:40.315Z,97120.72
2023-11-01T17:42:12.606Z,97123.13
2023-11-01T17:44:45.835Z,97124.94
2023-11-01T17:47:38.113Z,97126.91
2023-11-01T17:50:08.275Z,97124.50
2023-11-01T17:52:41.642Z,97126.81
2023-11-01T17:55:11.578Z,97122.75
2023-11-01T17:57:41.442Z,97119.72
2023-11-01T18:00:11.351Z,97122.31
2023-11-01T18:02:58.154Z,97124.47
2023-11-01T18:05:37.252Z,97129.06
2023-11-01T18:08:09.310Z,97125.66
2023-11-01T18:10:52.022Z,97135.03
2023-11-01T18:13:25.663Z,97138.81
2023-11-01T18:15:58.145Z,97140.00
2023-11-01T18:18:39.862Z,97130.78
2023-11-01T18:21:08.750Z,97130.00
2023-11-01T18:23:37.541Z,97134.00
2023-11-01T18:26:14.656Z,97143.75
2023-11-01T18:28:43.601Z,97134.31
2023-11-01T18:31:19.558Z,97136.78
2023-11-01T18:33:51.286Z,97140.09
2023-11-01T18:36:19.916Z,97140.44
2023-11-01T18:38:56.397Z,97151.97
2023-11-01T18:41:26.560Z,97137.25
2023-11-01T18:43:54.991Z,97137.06
2023-11-01T18:46:24.185Z,97146.25
2023-11-01T18:48:56.215Z,97148.84
2023-11-01T18:51:47.888Z,97141.69
2023-11-01T18:54:16.368Z,97143.28
2023-11-01T18:56:45.095Z,97143.28
2023-11-01T18:59:14.120Z,97139.28
2023-11-01T19:01:43.748Z,97137.66
2023-11-01T19:04:15.692Z,97139.66
2023-11-01T19:06:44.764Z,97133.41
2023-11-01T19:09:16.452Z,97131.16
2023-11-01T19:11:46.044Z,97133.75
2023-11-01T19:14:14.967Z,97131.00
2023-11-01T19:16:43.427Z,97132.41
2023-11-01T19:19:11.866Z,97127.66
2023-11-01T19:21:43.287Z,97121.50
2023-11-01T19:24:12.306Z,97124.88
2023-11-01T19:26:40.797Z,97118.72
2023-11-01T19:29:09.982Z,97119.88
2023-11-01T19:31:38.495Z,97123.91
2023-11-01T19:34:07.077Z,97116.91
2023-11-01T19:36:36.567Z,97116.75
2023-11-01T19:39:05.091Z,97121.31
2023-11-01T19:41:33.597Z,97120.06
2023-11-01T19:44:03.679Z,97118.66
2023-11-01T19:46:34.346Z,97121.22
2023-11-01T19:49:03.388Z,97122.22
2023-11-01T19:51:31.894Z,97118.84
2023-11-01T19:54:00.891Z,97121.22
2023-11-01T19:56:29.449Z,97123.44
2023-11-01T19:58:59.249Z,97110.94
2023-11-01T20:01:29.356Z,97120.31
2023-11-01T20:03:58.030Z,97114.16
2023-11-01T20:06:26.527Z,97112.53
2023-11-01T20:08:55.334Z,97115.75
2023-11-01T20:11:23.767Z,97117.34
2023-11-01T20:13:52.219Z,97120.13
2023-11-01T20:16:25.671Z,97112.53
2023-11-01T20:18:59.140Z,97116.13
2023-11-01T20:21:27.639Z,97124.88
2023-11-01T20:23:56.088Z,97123.63
2023-11-01T20:26:26.460Z,97123.03
2023-11-01T20:28:55.430Z,97118.03
2023-11-01T20:31:24.961Z,97121.03
2023-11-01T20:33:54.280Z,97123.03
2023-11-01T20:36:22.819Z,97118.84
2023-11-01T20:38:51.492Z,97121.44
2023-11-01T20:41:20.473Z,97124.81
2023-11-01T20:43:49.466Z,97132.78
2023-11-01T20:46:18.232Z,97124.38
2023-11-01T20:48:46.927Z,97123.75
2023-11-01T20:51:22.189Z,97119.56
2023-11-01T20:53:52.582Z,97119.94
2023-11-01T20:56:21.900Z,97124.69
2023-11-01T20:58:50.381Z,97132.63
2023-11-01T21:01:20.465Z,97127.81
2023-11-01T21:03:49.443Z,97128.19
2023-11-01T21:06:19.161Z,97122.19
2023-11-01T21:08:47.593Z,97123.00
2023-11-01T21:11:16.326Z,97128.56
2023-11-01T21:13:45.299Z,97132.31
2023-11-01T21:16:14.043Z,97127.13
2023-11-01T21:18:42.994Z,97123.28
2023-11-01T21:21:11.744Z,97121.22
2023-11-01T21:23:40.732Z,97121.78
2023-11-01T21:26:09.747Z,97124.75
2023-11-01T21:28:41.138Z,97124.47
2023-11-01T21:31:12.187Z,97129.84
2023-11-01T21:33:47.528Z,97122.59
2023-11-01T21:36:15.933Z,97129.38
2023-11-01T21:38:44.395Z,97134.56
2023-11-01T21:41:13.004Z,97131.19
2023-11-01T21:43:50.316Z,97129.38
2023-11-01T21:46:26.386Z,97130.03
2023-11-01T21:48:55.263Z,97139.19
2023-11-01T21:51:23.755Z,97135.25
2023-11-01T21:53:52.369Z,97140.91
2023-11-01T21:56:24.413Z,97143.94
2023-11-01T21:59:00.284Z,97141.34
2023-11-01T22:01:32.878Z,97146.63
2023-11-01T22:04:20.370Z,97141.44
2023-11-01T22:06:51.266Z,97150.63
2023-11-01T22:09:20.195Z,97147.50
2023-11-01T22:11:50.900Z,97141.16
2023-11-01T22:14:33.230Z,97139.53
2023-11-01T22:17:03.474Z,97145.34
2023-11-01T22:19:39.470Z,97145.34
2023-11-01T22:22:20.457Z,97150.34
2023-11-01T22:24:49.061Z,97150.16
2023-11-01T22:27:18.330Z,97148.53
2023-11-01T22:29:51.168Z,97145.50
2023-11-01T22:32:20.065Z,97149.91
2023-11-01T22:34:49.384Z,97149.09
2023-11-01T22:37:25.219Z,97137.31
2023-11-01T22:39:54.343Z,97137.31
2023-11-01T22:42:25.933Z,97148.38
2023-11-01T22:44:54.332Z,97137.16
2023-11-01T22:47:27.582Z,97143.50
2023-11-01T22:49:56.868Z,97136.34
2023-11-01T22:52:25.324Z,97141.34
2023-11-01T22:54:54.196Z,97143.13
2023-11-01T22:57:23.590Z,97138.13
2023-11-01T22:59:52.427Z,97131.97
2023-11-01T23:02:21.758Z,97139.38
2023-11-01T23:04:51.260Z,97139.19
2023-11-01T23:07:19.877Z,97135.44
2023-11-01T23:09:48.474Z,97139.63
2023-11-01T23:12:16.963Z,97142.59
2023-11-01T23:14:45.357Z,97140.00
2023-11-01T23:17:13.989Z,97140.44
2023-11-01T23:19:43.112Z,97130.97
2023-11-01T23:22:13.063Z,97138.63
2023-11-01T23:24:41.409Z,97137.88
2023-11-01T23:27:10.511Z,97138.16
2023-11-01T23:29:40.558Z,97131.16
2023-11-01T23:32:13.348Z,97134.84
2023-11-01T23:34:55.278Z,97135.81
2023-11-01T23:37:37.984Z,97130.69
2023-11-01T23:40:10.427Z,97134.53
2023-11-01T23:42:39.048Z,97133.56
2023-11-01T23:45:27.683Z,97125.78
2023-11-01T23:48:03.622Z,97132.03
2023-11-01T23:50:36.233Z,97129.59
2023-11-01T23:53:05.680Z,97130.63
2023-11-01T23:55:34.988Z,97121.81
2023-11-01T23:58:04.201Z,97118.78
